Time;durP1;ratioP1;P1;durP2;ratioP2;P2;SDS_P1;SDS_P2;PMS_P1;PMS_P2;Temp;Humidity;BMP_temperature;BMP_pressure;BME280_temperature;BME280_humidity;BME280_pressure;Samples;Min_cycle;Max_cycle;Signal;HPM_P1;HPM_P2
2021/02/06 00:03:20;;;;;;;19.9;16.1;;;;;;;-3.14;86.88477;98837.6;;;;
2021/02/06 00:13:17;;;;;;;29.8;17.9;;;;;;;-3.24;87.39648;98833.82;;;;
2021/02/06 00:23:16;;;;;;;28.2;18.6;;;;;;;-3.35;87.44043;98816.05;;;;
2021/02/06 00:33:12;;;;;;;26.1;19.5;;;;;;;-3.33;87.56348;98812.17;;;;
2021/02/06 00:43:10;;;;;;;21.5;14.7;;;;;;;-3.43;87.93262;98813.66;;;;
2021/02/06 00:53:07;;;;;;;22.1;18.7;;;;;;;-3.63;88.56836;98808.52;;;;
2021/02/06 01:03:04;;;;;;;23.6;16.6;;;;;;;-3.73;88.67676;98802.89;;;;
2021/02/06 01:13:02;;;;;;;28.4;15.7;;;;;;;-3.66;89.18262;98820.28;;;;
2021/02/06 01:22:59;;;;;;;15.8;12;;;;;;;-3.64;89.25;98822.69;;;;
2021/02/06 01:32:56;;;;;;;27.7;16;;;;;;;-3.69;89.33984;98810.17;;;;
2021/02/06 01:42:53;;;;;;;21.7;15.7;;;;;;;-3.67;89.16797;98807.31;;;;
2021/02/06 01:52:50;;;;;;;26.2;16.5;;;;;;;-3.64;89.45801;98773.46;;;;
2021/02/06 02:02:48;;;;;;;27.3;15.9;;;;;;;-3.74;88.86133;98783.65;;;;
2021/02/06 02:12:45;;;;;;;19.1;15.1;;;;;;;-3.7;88.74707;98799.84;;;;
2021/02/06 02:22:42;;;;;;;20.7;14.2;;;;;;;-3.71;88.83398;98774.52;;;;
2021/02/06 02:32:40;;;;;;;26.9;16;;;;;;;-3.71;88.82324;98785.05;;;;
2021/02/06 02:42:37;;;;;;;23.4;14.6;;;;;;;-3.7;88.94238;98765.61;;;;
2021/02/06 02:52:34;;;;;;;23.6;13;;;;;;;-3.63;88.74219;98785.63;;;;
2021/02/06 03:02:31;;;;;;;25.9;14.8;;;;;;;-3.7;88.78027;98776.14;;;;
2021/02/06 03:12:30;;;;;;;35.2;17.9;;;;;;;-3.78;89.00391;98786.91;;;;
2021/02/06 03:22:28;;;;;;;26.4;18;;;;;;;-3.76;88.6377;98790.16;;;;
2021/02/06 03:32:23;;;;;;;27.2;16.6;;;;;;;-3.88;89.05957;98795.27;;;;
2021/02/06 03:42:20;;;;;;;25.3;17.7;;;;;;;-3.95;89.23828;98801.57;;;;
2021/02/06 03:52:18;;;;;;;29.2;18.4;;;;;;;-3.98;89.0498;98805.44;;;;
2021/02/06 04:02:15;;;;;;;27.8;18.8;;;;;;;-3.91;88.44336;98787.79;;;;
2021/02/06 04:12:12;;;;;;;24.2;14.9;;;;;;;-3.9;88.90332;98792.05;;;;
2021/02/06 04:22:09;;;;;;;24.8;19.2;;;;;;;-3.89;88.54492;98787.59;;;;
2021/02/06 04:32:07;;;;;;;32.2;18.1;;;;;;;-3.9;88.95801;98794.68;;;;
2021/02/06 04:42:04;;;;;;;27.6;17.7;;;;;;;-3.76;88.24707;98792.78;;;;
2021/02/06 04:52:01;;;;;;;30.6;18.4;;;;;;;-3.89;88.80566;98816.55;;;;
2021/02/06 05:01:58;;;;;;;24.5;17.1;;;;;;;-3.88;88.44922;98815.52;;;;
2021/02/06 05:11:55;;;;;;;24.4;19.7;;;;;;;-3.78;88.26465;98821.14;;;;
2021/02/06 05:21:53;;;;;;;22.3;18.8;;;;;;;-3.8;88.31543;98818.73;;;;
2021/02/06 05:31:50;;;;;;;23.8;16.3;;;;;;;-3.65;87.8125;98826.36;;;;
2021/02/06 05:41:47;;;;;;;27.7;18.9;;;;;;;-3.75;87.08496;98815.48;;;;
2021/02/06 05:51:45;;;;;;;29.4;17.9;;;;;;;-3.72;86.7334;98821.13;;;;
2021/02/06 06:01:42;;;;;;;28.6;17.3;;;;;;;-3.79;85.40234;98822.17;;;;
2021/02/06 06:11:39;;;;;;;25.9;15.5;;;;;;;-3.76;85.35352;98819.93;;;;
2021/02/06 06:21:37;;;;;;;23.2;13.6;;;;;;;-3.76;84.26563;98834.91;;;;
2021/02/06 06:31:34;;;;;;;23.3;16.1;;;;;;;-3.71;83.79688;98833.26;;;;
2021/02/06 06:41:34;;;;;;;23.6;16.6;;;;;;;-3.58;83.94336;98825.31;;;;
2021/02/06 06:51:29;;;;;;;22.9;15.8;;;;;;;-3.6;83.27344;98835.23;;;;
2021/02/06 07:01:44;;;;;;;25.5;17.7;;;;;;;-3.52;83.18066;98842.09;;;;
2021/02/06 07:11:23;;;;;;;34.3;18.5;;;;;;;-3.46;82.78809;98853.59;;;;
2021/02/06 07:21:21;;;;;;;29.1;16.9;;;;;;;-3.4;81.49219;98850.14;;;;
2021/02/06 07:31:18;;;;;;;19.2;15;;;;;;;-3.33;79.62988;98841.16;;;;
2021/02/06 07:41:16;;;;;;;19.4;15.8;;;;;;;-3.28;80.05371;98836.08;;;;
2021/02/06 07:51:13;;;;;;;26.2;16.7;;;;;;;-3.08;79.99316;98838.56;;;;
2021/02/06 08:01:10;;;;;;;26.4;16.6;;;;;;;-3.03;78.61523;98830.02;;;;
2021/02/06 08:11:08;;;;;;;21.9;17;;;;;;;-2.96;78.46387;98836.05;;;;
2021/02/06 08:21:08;;;;;;;26.8;17;;;;;;;-2.72;78.20313;98824.7;;;;
2021/02/06 08:31:03;;;;;;;25.4;17.4;;;;;;;-2.62;77.47852;98828.47;;;;
2021/02/06 08:41:00;;;;;;;19.9;17.5;;;;;;;-2.7;77.13574;98836.64;;;;
2021/02/06 08:50:58;;;;;;;24.1;17.3;;;;;;;-2.39;75.9541;98854.22;;;;
2021/02/06 09:00:55;;;;;;;26.5;18.6;;;;;;;-2.55;76.10254;98850.32;;;;
2021/02/06 09:10:53;;;;;;;22.5;16.7;;;;;;;-2.35;75.91895;98855.41;;;;
2021/02/06 09:20:50;;;;;;;22.2;16.8;;;;;;;-1.98;75.50195;98858.09;;;;
2021/02/06 09:30:48;;;;;;;33.7;21.3;;;;;;;-2.19;75.56445;98846.13;;;;
2021/02/06 09:40:45;;;;;;;30;19.9;;;;;;;-1.86;74.88672;98853.67;;;;
2021/02/06 09:50:43;;;;;;;26.8;20.2;;;;;;;-1.95;75.7041;98847.08;;;;
2021/02/06 10:00:41;;;;;;;32;21.2;;;;;;;-2.07;74.95117;98842.53;;;;
2021/02/06 10:10:38;;;;;;;29.9;20.5;;;;;;;-2.16;74.93555;98843.85;;;;
2021/02/06 10:20:36;;;;;;;26.9;20.2;;;;;;;-2.07;74.84082;98850.45;;;;
2021/02/06 10:30:33;;;;;;;31.2;18.5;;;;;;;-1.45;73.37891;98847.66;;;;
2021/02/06 10:40:31;;;;;;;23.3;20.4;;;;;;;-1.12;70.57715;98845.39;;;;
2021/02/06 10:50:29;;;;;;;25.3;20.6;;;;;;;-1.16;69.1084;98845.03;;;;
2021/02/06 11:00:29;;;;;;;25.5;20.4;;;;;;;-1.37;70.1416;98848.17;;;;
2021/02/06 11:10:24;;;;;;;30.4;20.4;;;;;;;-1.44;69.99805;98847.45;;;;
2021/02/06 11:20:22;;;;;;;30.3;20.4;;;;;;;-1.51;69.40332;98841.45;;;;
2021/02/06 11:30:20;;;;;;;26.5;19;;;;;;;-1.06;68.16699;98833.89;;;;
2021/02/06 11:40:17;;;;;;;25.8;19.8;;;;;;;-0.93;66.72168;98827.59;;;;
2021/02/06 11:50:15;;;;;;;29.5;21.7;;;;;;;-0.76;65.30469;98823.23;;;;
2021/02/06 12:00:13;;;;;;;33.4;24.2;;;;;;;-0.35;64.23242;98825.81;;;;
2021/02/06 12:10:10;;;;;;;21.7;19.6;;;;;;;-0.5;63.75684;98820.16;;;;
2021/02/06 12:20:08;;;;;;;34.7;22;;;;;;;-0.52;63.5332;98804.5;;;;
2021/02/06 12:30:06;;;;;;;25.9;18.9;;;;;;;-0.79;64.05566;98805.18;;;;
2021/02/06 12:40:03;;;;;;;22;16.8;;;;;;;-0.82;65.05371;98802.99;;;;
2021/02/06 12:50:01;;;;;;;20.6;16.2;;;;;;;-1.3;64.36328;98805.78;;;;
2021/02/06 12:59:59;;;;;;;25.8;15.5;;;;;;;-1.13;62.62598;98804.09;;;;
2021/02/06 13:09:56;;;;;;;23.6;14.6;;;;;;;-1.16;61.38672;98801.91;;;;
2021/02/06 13:19:54;;;;;;;21;13;;;;;;;-1.29;59.30664;98792.35;;;;
2021/02/06 13:29:51;;;;;;;22.4;14.4;;;;;;;-1.31;60.18555;98804.97;;;;
2021/02/06 13:39:49;;;;;;;11.9;9;;;;;;;-1.26;58.8916;98814.88;;;;
2021/02/06 13:49:47;;;;;;;15.4;10.2;;;;;;;-1.62;58.14551;98807.84;;;;
2021/02/06 13:59:44;;;;;;;21.6;11.6;;;;;;;-1.8;57.70215;98802.59;;;;
2021/02/06 14:09:42;;;;;;;12.5;8.8;;;;;;;-1.94;58.09082;98819.66;;;;
2021/02/06 14:19:41;;;;;;;15;8.5;;;;;;;-1.93;58.52246;98819.41;;;;
2021/02/06 14:29:37;;;;;;;11.1;8.2;;;;;;;-2.06;57.20605;98820.39;;;;
2021/02/06 14:39:34;;;;;;;14.4;8.7;;;;;;;-2.26;57.84961;98816.35;;;;
2021/02/06 14:49:32;;;;;;;13.6;9.5;;;;;;;-2.35;56.69238;98820.28;;;;
2021/02/06 14:59:30;;;;;;;11.7;7.1;;;;;;;-2.32;55.70605;98823.3;;;;
2021/02/06 15:09:29;;;;;;;12.2;8.3;;;;;;;-2.4;55.87012;98814.88;;;;
2021/02/06 15:19:25;;;;;;;14.7;9.5;;;;;;;-2.43;57.05469;98815.31;;;;
2021/02/06 15:29:22;;;;;;;17.2;8.8;;;;;;;-2.38;56.96387;98813.62;;;;
2021/02/06 15:39:20;;;;;;;8.4;6.1;;;;;;;-2.44;56.17285;98805.77;;;;
2021/02/06 15:49:17;;;;;;;9.8;7.1;;;;;;;-2.59;56.18652;98808.75;;;;
2021/02/06 15:59:15;;;;;;;13;6.9;;;;;;;-2.63;56.61133;98804.92;;;;
2021/02/06 16:09:12;;;;;;;13.1;7.6;;;;;;;-2.73;56.31055;98810.7;;;;
2021/02/06 16:19:10;;;;;;;17.3;9.7;;;;;;;-2.78;57.76758;98810.56;;;;
2021/02/06 16:29:07;;;;;;;11;8.8;;;;;;;-2.85;58.05469;98819.55;;;;
2021/02/06 16:39:04;;;;;;;10;7.1;;;;;;;-2.88;58.94043;98817.34;;;;
2021/02/06 16:49:02;;;;;;;13;7.3;;;;;;;-2.9;60.03613;98819.38;;;;
2021/02/06 16:58:59;;;;;;;12.2;9.5;;;;;;;-3.01;61.63574;98820.88;;;;
2021/02/06 17:08:57;;;;;;;19.2;9.6;;;;;;;-3.08;62.76758;98818.29;;;;
2021/02/06 17:18:54;;;;;;;16.1;10;;;;;;;-3.03;63.62891;98837.94;;;;
2021/02/06 17:28:52;;;;;;;17.3;14.4;;;;;;;-3.03;64.63965;98804.47;;;;
2021/02/06 17:38:49;;;;;;;21.9;16;;;;;;;-2.97;66.0957;98815.98;;;;
2021/02/06 17:48:46;;;;;;;22.2;14.9;;;;;;;-3.05;66.55566;98803.86;;;;
2021/02/06 17:58:44;;;;;;;21.6;16.3;;;;;;;-3.01;67.09668;98775.24;;;;
2021/02/06 18:08:41;;;;;;;26.6;15.3;;;;;;;-3.08;68.56641;98759.48;;;;
2021/02/06 18:18:39;;;;;;;22.8;20.2;;;;;;;-3.13;69.67578;98783.06;;;;
2021/02/06 18:28:36;;;;;;;23;18.6;;;;;;;-3.27;71.69824;98753.37;;;;
2021/02/06 18:38:33;;;;;;;24.6;18.9;;;;;;;-3.39;72.56445;98744.53;;;;
2021/02/06 18:48:31;;;;;;;26.1;16.8;;;;;;;-3.46;72.41895;98764.03;;;;
2021/02/06 18:58:30;;;;;;;26;18.4;;;;;;;-3.49;73.10352;98767.91;;;;
2021/02/06 19:08:26;;;;;;;30.4;18.8;;;;;;;-3.46;72.39941;98772.74;;;;
2021/02/06 19:18:23;;;;;;;29.7;18.6;;;;;;;-3.42;72.63574;98771.3;;;;
2021/02/06 19:28:20;;;;;;;18.3;13.2;;;;;;;-3.47;72.10059;98754.53;;;;
2021/02/06 19:38:18;;;;;;;20.5;15.1;;;;;;;-3.49;72.38184;98736.3;;;;
2021/02/06 19:48:15;;;;;;;20.2;13.7;;;;;;;-3.51;72.25879;98733.08;;;;
2021/02/06 19:58:13;;;;;;;26.3;15.1;;;;;;;-3.57;73.2207;98728.64;;;;
2021/02/06 20:08:10;;;;;;;23.8;16.2;;;;;;;-3.59;73.31543;98728.06;;;;
2021/02/06 20:18:08;;;;;;;25;18.3;;;;;;;-3.7;73.80859;98739.27;;;;
2021/02/06 20:28:05;;;;;;;23.1;14.3;;;;;;;-3.71;74.04883;98743.73;;;;
2021/02/06 20:38:02;;;;;;;21.3;14.9;;;;;;;-3.81;74.38086;98745.2;;;;
2021/02/06 20:48:00;;;;;;;38.8;25.6;;;;;;;-3.9;74.54004;98742.03;;;;
2021/02/06 20:57:57;;;;;;;26.8;17.6;;;;;;;-4.01;74.16895;98765.56;;;;
2021/02/06 21:07:54;;;;;;;23;16.5;;;;;;;-4.15;73.73242;98773.52;;;;
2021/02/06 21:17:52;;;;;;;23.1;17.6;;;;;;;-4.23;73.5332;98771.12;;;;
2021/02/06 21:27:49;;;;;;;26.3;15.6;;;;;;;-4.25;73.48438;98770.53;;;;
2021/02/06 21:37:46;;;;;;;26.1;14.4;;;;;;;-4.41;74.9502;98754.41;;;;
2021/02/06 21:47:43;;;;;;;17.8;12.7;;;;;;;-4.49;78.23535;98754.63;;;;
2021/02/06 21:57:41;;;;;;;24.9;14.1;;;;;;;-4.76;81.55859;98746.81;;;;
2021/02/06 22:07:38;;;;;;;30.3;19;;;;;;;-4.81;82.90625;98743.98;;;;
2021/02/06 22:17:35;;;;;;;24.8;15.3;;;;;;;-4.96;85.14258;98742.6;;;;
2021/02/06 22:27:32;;;;;;;26.1;15.8;;;;;;;-5.13;86.58496;98736.94;;;;
2021/02/06 22:37:30;;;;;;;24.4;15.5;;;;;;;-5.19;87.52637;98716.73;;;;
2021/02/06 22:47:27;;;;;;;29.4;16.7;;;;;;;-5.15;87.19922;98703;;;;
2021/02/06 22:57:24;;;;;;;30.7;18.1;;;;;;;-5.51;86.30078;98684.23;;;;
2021/02/06 23:07:21;;;;;;;27.9;19.1;;;;;;;-5.55;86.20508;98682.23;;;;
2021/02/06 23:17:18;;;;;;;27.4;16.3;;;;;;;-5.74;86.10156;98673.33;;;;
2021/02/06 23:27:15;;;;;;;29.3;19.5;;;;;;;-5.73;86.61426;98669.7;;;;
2021/02/06 23:37:12;;;;;;;29.2;17.5;;;;;;;-5.88;86.04004;98658.61;;;;
2021/02/06 23:47:09;;;;;;;29.7;17.9;;;;;;;-6.08;85.71875;98639.42;;;;
2021/02/06 23:57:06;;;;;;;31.9;19.7;;;;;;;-6.18;87.16016;98632.73;;;;
